Time;durP1;ratioP1;P1;durP2;ratioP2;P2;SDS_P1;SDS_P2;PMS_P1;PMS_P2;Temp;Humidity;BMP_temperature;BMP_pressure;BME280_temperature;BME280_humidity;BME280_pressure;Samples;Min_cycle;Max_cycle;Signal;HPM_P1;HPM_P2
2021/11/25 00:01:24;;;;;;;16.43;11.37;;;3.90;99.90;;;;;;6252454;23;20177;-51
2021/11/25 00:03:49;;;;;;;15.47;11.47;;;4.30;99.90;;;;;;6252911;23;20171;-51
2021/11/25 00:06:15;;;;;;;15.57;10.80;;;4.00;99.90;;;;;;6253200;23;20150;-51
2021/11/25 00:08:41;;;;;;;15.57;11.00;;;4.00;99.90;;;;;;6252598;22;20216;-51
2021/11/25 00:11:07;;;;;;;15.73;11.10;;;4.10;99.90;;;;;;6253109;22;20180;-51
2021/11/25 00:13:32;;;;;;;17.83;12.50;;;3.70;99.90;;;;;;6253493;22;20441;-51
2021/11/25 00:15:58;;;;;;;16.93;12.53;;;3.50;99.90;;;;;;6252482;23;20161;-51
2021/11/25 00:18:24;;;;;;;15.73;10.77;;;3.90;99.90;;;;;;6239885;23;20168;-52
2021/11/25 00:20:49;;;;;;;18.93;11.47;;;4.10;99.90;;;;;;6252301;23;20318;-51
2021/11/25 00:23:15;;;;;;;14.53;10.23;;;4.20;99.90;;;;;;6252978;22;20156;-51
2021/11/25 00:25:41;;;;;;;18.33;11.93;;;4.10;99.90;;;;;;6252264;22;20519;-52
2021/11/25 00:28:07;;;;;;;16.30;10.93;;;4.10;99.90;;;;;;6252670;23;20152;-51
2021/11/25 00:30:33;;;;;;;16.30;11.20;;;4.10;99.90;;;;;;6253096;22;20202;-51
2021/11/25 00:32:58;;;;;;;16.20;11.90;;;4.00;99.90;;;;;;6252663;23;20157;-51
2021/11/25 00:35:24;;;;;;;17.27;11.00;;;3.90;99.90;;;;;;6252581;23;20153;-51
2021/11/25 00:37:50;;;;;;;17.90;11.00;;;4.10;99.90;;;;;;6240827;23;20240;-51
2021/11/25 00:40:18;;;;;;;17.88;12.80;;;3.60;99.90;;;;;;6251902;22;20256;-51
2021/11/25 00:42:44;;;;;;;16.33;11.18;;;3.60;99.90;;;;;;6253269;22;20145;-51
2021/11/25 00:45:11;;;;;;;17.30;11.65;;;3.70;99.90;;;;;;6252742;22;20156;-51
2021/11/25 00:47:37;;;;;;;18.27;12.55;;;3.70;99.90;;;;;;6241417;22;20184;-51
2021/11/25 00:50:05;;;;;;;18.53;11.77;;;4.00;99.90;;;;;;6242807;22;20639;-52
2021/11/25 00:52:31;;;;;;;16.85;11.43;;;3.80;99.90;;;;;;6252867;22;20866;-51
2021/11/25 00:54:56;;;;;;;14.70;10.60;;;4.30;99.90;;;;;;6251793;22;20159;-52
2021/11/25 00:57:22;;;;;;;17.73;11.67;;;4.00;99.90;;;;;;6251715;23;20914;-51
2021/11/25 00:59:48;;;;;;;17.37;11.80;;;4.30;99.90;;;;;;6251768;22;20236;-52
2021/11/25 01:02:14;;;;;;;16.93;12.00;;;4.30;99.90;;;;;;6251064;22;20729;-51
2021/11/25 01:04:39;;;;;;;21.70;12.87;;;4.40;99.90;;;;;;6252811;22;20399;-51
2021/11/25 01:07:05;;;;;;;20.30;12.03;;;4.20;99.90;;;;;;6252334;23;20381;-51
2021/11/25 01:09:31;;;;;;;17.43;12.13;;;4.00;99.90;;;;;;6252387;23;20173;-51
2021/11/25 01:12:05;;;;;;;17.77;11.57;;;3.90;99.90;;;;;;6252481;23;20171;-51
2021/11/25 01:14:33;;;;;;;19.75;12.88;;;3.80;99.90;;;;;;6252797;22;20175;-52
2021/11/25 01:16:59;;;;;;;17.45;12.20;;;3.80;99.90;;;;;;6251711;22;20156;-51
2021/11/25 01:19:26;;;;;;;16.08;11.90;;;4.10;99.90;;;;;;6251623;22;20228;-51
2021/11/25 01:21:52;;;;;;;18.58;11.60;;;3.90;99.90;;;;;;6252612;22;20231;-51
2021/11/25 01:24:18;;;;;;;17.02;11.23;;;3.80;99.90;;;;;;6253311;23;20165;-51
2021/11/25 01:26:43;;;;;;;20.10;12.90;;;4.00;99.90;;;;;;6254852;23;20153;-51
2021/11/25 01:29:11;;;;;;;16.20;11.00;;;4.00;99.90;;;;;;6244597;22;20149;-51
2021/11/25 01:31:37;;;;;;;16.42;11.35;;;4.10;99.90;;;;;;6244420;22;20603;-51
2021/11/25 01:34:03;;;;;;;17.40;12.48;;;4.20;99.90;;;;;;6254042;22;20686;-51
2021/11/25 01:36:29;;;;;;;16.27;11.70;;;4.20;99.90;;;;;;6242958;23;20184;-51
2021/11/25 01:38:54;;;;;;;16.40;11.33;;;3.40;99.90;;;;;;6252914;23;20163;-51
2021/11/25 01:41:20;;;;;;;17.60;12.00;;;4.40;99.90;;;;;;6252584;23;20177;-51
2021/11/25 01:43:46;;;;;;;17.27;11.70;;;4.00;99.90;;;;;;6253925;23;20157;-51
2021/11/25 01:46:17;;;;;;;18.20;11.93;;;4.70;99.90;;;;;;6254128;23;20187;-51
2021/11/25 01:48:47;;;;;;;21.55;12.35;;;4.30;99.90;;;;;;6253716;22;20372;-51
2021/11/25 01:51:13;;;;;;;17.10;12.35;;;4.20;99.90;;;;;;6253168;22;20172;-51
2021/11/25 01:53:39;;;;;;;16.27;11.23;;;4.20;99.90;;;;;;6254260;22;20190;-51
2021/11/25 01:56:06;;;;;;;17.67;11.77;;;3.80;99.90;;;;;;6253814;23;20199;-51
2021/11/25 01:58:33;;;;;;;21.50;12.75;;;3.90;99.90;;;;;;6242315;22;20153;-51
2021/11/25 02:01:00;;;;;;;16.02;11.40;;;3.80;99.90;;;;;;6253275;22;20220;-51
2021/11/25 02:03:27;;;;;;;16.30;11.63;;;3.90;99.90;;;;;;6243385;22;20196;-51
2021/11/25 02:05:54;;;;;;;20.10;12.95;;;3.60;99.90;;;;;;6254274;22;20638;-51
2021/11/25 02:08:20;;;;;;;18.02;12.27;;;3.60;99.90;;;;;;6253904;22;20157;-51
2021/11/25 02:10:49;;;;;;;16.77;11.60;;;3.70;99.90;;;;;;6253793;22;20173;-51
2021/11/25 02:13:15;;;;;;;21.05;12.50;;;3.70;99.90;;;;;;6254676;22;20388;-51
2021/11/25 02:15:41;;;;;;;16.42;12.18;;;4.10;99.90;;;;;;6253651;22;20153;-51
2021/11/25 02:18:12;;;;;;;16.10;11.60;;;3.90;99.90;;;;;;6242312;23;20168;-51
2021/11/25 02:20:40;;;;;;;19.10;13.57;;;3.70;99.90;;;;;;6266624;22;20211;-51
2021/11/25 02:23:09;;;;;;;17.67;11.85;;;3.80;99.90;;;;;;6242093;23;20149;-51
2021/11/25 02:25:35;;;;;;;17.50;11.57;;;3.70;99.90;;;;;;6243321;22;20158;-51
2021/11/25 02:28:01;;;;;;;18.30;12.03;;;3.80;99.90;;;;;;6253693;23;20191;-51
2021/11/25 02:30:27;;;;;;;18.25;12.00;;;3.70;99.90;;;;;;6252814;22;20408;-51
2021/11/25 02:32:53;;;;;;;19.17;13.30;;;3.90;99.90;;;;;;6254459;23;20595;-52
2021/11/25 02:35:22;;;;;;;18.13;12.60;;;4.00;99.90;;;;;;6253636;22;20380;-51
2021/11/25 02:37:49;;;;;;;18.38;12.13;;;3.90;99.90;;;;;;6252982;22;20150;-51
2021/11/25 02:40:27;;;;;;;21.60;13.38;;;3.80;99.90;;;;;;6243077;23;20177;-51
2021/11/25 02:42:56;;;;;;;17.77;12.13;;;3.80;99.90;;;;;;6253534;23;20637;-51
2021/11/25 02:45:24;;;;;;;17.83;13.73;;;4.10;99.90;;;;;;6253963;22;20146;-51
2021/11/25 02:47:50;;;;;;;17.90;13.13;;;3.40;99.90;;;;;;6253250;22;20138;-51
2021/11/25 02:50:18;;;;;;;20.83;12.90;;;4.00;99.90;;;;;;6253830;22;20689;-51
2021/11/25 02:52:45;;;;;;;17.45;12.18;;;3.90;99.90;;;;;;6253657;22;20219;-51
2021/11/25 02:55:12;;;;;;;18.15;13.32;;;4.00;99.90;;;;;;6252991;22;20555;-51
2021/11/25 02:57:38;;;;;;;19.08;12.93;;;4.00;99.90;;;;;;6252613;23;20154;-51
2021/11/25 03:00:11;;;;;;;18.63;12.30;;;4.10;99.90;;;;;;6253208;22;20169;-51
2021/11/25 03:02:37;;;;;;;18.95;13.52;;;4.20;99.90;;;;;;6253424;22;20675;-51
2021/11/25 03:05:03;;;;;;;19.73;12.70;;;4.10;99.90;;;;;;6253833;23;20180;-51
2021/11/25 03:07:28;;;;;;;20.13;12.93;;;4.10;99.90;;;;;;6253358;23;20526;-51
2021/11/25 03:09:54;;;;;;;21.03;13.30;;;4.10;99.90;;;;;;6252249;23;20881;-55
2021/11/25 03:12:19;;;;;;;18.10;12.27;;;4.20;99.90;;;;;;6253594;23;20635;-51
2021/11/25 03:14:45;;;;;;;18.30;12.43;;;4.10;99.90;;;;;;6254290;23;20153;-51
2021/11/25 03:17:11;;;;;;;19.70;13.20;;;4.00;99.90;;;;;;6243128;23;20206;-51
2021/11/25 03:19:38;;;;;;;22.90;13.10;;;4.10;99.90;;;;;;6253743;23;20150;-51
2021/11/25 03:22:04;;;;;;;18.55;12.23;;;3.80;99.90;;;;;;6253373;22;20280;-51
2021/11/25 03:24:30;;;;;;;17.73;12.50;;;3.70;99.90;;;;;;6243193;22;20181;-51
2021/11/25 03:26:55;;;;;;;21.17;13.40;;;4.30;99.90;;;;;;6253373;23;20152;-51
2021/11/25 03:29:21;;;;;;;19.70;14.17;;;4.00;99.90;;;;;;6243287;23;20157;-51
2021/11/25 03:31:47;;;;;;;19.50;13.60;;;3.50;99.90;;;;;;6242899;23;20184;-51
2021/11/25 03:34:12;;;;;;;17.77;11.87;;;4.00;99.90;;;;;;6253161;23;20150;-52
2021/11/25 03:36:38;;;;;;;18.00;11.40;;;3.20;99.90;;;;;;6252696;22;20158;-52
2021/11/25 03:39:04;;;;;;;19.83;11.87;;;3.70;99.90;;;;;;6251310;23;20153;-52
2021/11/25 03:41:30;;;;;;;21.38;13.35;;;3.90;99.90;;;;;;6242234;23;20360;-51
2021/11/25 03:43:58;;;;;;;18.00;12.83;;;3.80;99.90;;;;;;6253573;22;20149;-51
2021/11/25 03:46:23;;;;;;;19.00;13.48;;;4.00;99.90;;;;;;6240758;23;20164;-52
2021/11/25 03:48:49;;;;;;;16.77;12.50;;;3.80;99.90;;;;;;6253038;23;20212;-51
2021/11/25 03:51:15;;;;;;;20.27;13.55;;;3.90;99.90;;;;;;6253247;22;20176;-51
2021/11/25 03:53:44;;;;;;;19.42;13.18;;;3.60;99.90;;;;;;6242414;22;20160;-51
2021/11/25 03:56:11;;;;;;;19.58;12.98;;;3.20;99.90;;;;;;6252687;22;20153;-52
2021/11/25 03:58:37;;;;;;;16.90;11.43;;;3.60;99.90;;;;;;6252248;22;20630;-51
2021/11/25 04:01:03;;;;;;;16.75;12.10;;;3.10;99.90;;;;;;6252690;22;20188;-52
2021/11/25 04:03:29;;;;;;;22.65;13.57;;;3.70;99.90;;;;;;6252828;22;20185;-52
2021/11/25 04:05:55;;;;;;;18.33;11.67;;;3.80;99.90;;;;;;6253257;22;20156;-51
2021/11/25 04:08:21;;;;;;;20.33;13.40;;;3.60;99.90;;;;;;6253351;22;20149;-52
2021/11/25 04:10:47;;;;;;;17.30;12.40;;;3.80;99.90;;;;;;6242666;22;20466;-51
2021/11/25 04:13:12;;;;;;;24.27;15.00;;;3.70;99.90;;;;;;6242698;23;20153;-52
2021/11/25 04:15:38;;;;;;;18.60;12.37;;;3.70;99.90;;;;;;6252685;22;20185;-51
2021/11/25 04:18:04;;;;;;;17.65;12.68;;;3.80;99.90;;;;;;6251308;22;20399;-51
2021/11/25 04:20:30;;;;;;;19.30;12.50;;;4.10;99.90;;;;;;6239928;23;20185;-52
2021/11/25 04:22:58;;;;;;;19.30;12.45;;;4.10;99.90;;;;;;6252862;22;20244;-51
2021/11/25 04:25:24;;;;;;;18.85;12.05;;;3.70;99.90;;;;;;6242314;22;20654;-52
2021/11/25 04:27:49;;;;;;;19.33;11.50;;;3.70;99.90;;;;;;6252481;22;20148;-51
2021/11/25 04:35:32;;;;;;;15.35;11.95;;;3.50;99.90;;;;;;6252804;23;20165;-51
2021/11/25 04:38:10;;;;;;;20.40;13.00;;;3.60;99.90;;;;;;6239303;23;20154;-51
2021/11/25 04:40:40;;;;;;;21.05;13.35;;;3.80;99.90;;;;;;6251566;23;20619;-52
2021/11/25 04:43:07;;;;;;;16.88;12.02;;;4.10;99.90;;;;;;6253061;22;20208;-52
2021/11/25 04:45:34;;;;;;;17.98;12.20;;;3.30;99.90;;;;;;6242515;22;20173;-52
2021/11/25 04:48:00;;;;;;;19.83;13.43;;;3.80;99.90;;;;;;6252343;22;20145;-51
2021/11/25 04:50:27;;;;;;;20.17;12.95;;;3.90;99.90;;;;;;6252727;23;20164;-51
2021/11/25 04:52:52;;;;;;;17.65;12.77;;;3.60;99.90;;;;;;6252944;22;20149;-51
2021/11/25 04:55:19;;;;;;;20.67;13.33;;;3.70;99.90;;;;;;6252219;23;20157;-51
2021/11/25 04:57:45;;;;;;;18.90;13.23;;;3.30;99.90;;;;;;6242554;22;20155;-52
2021/11/25 05:00:12;;;;;;;19.13;13.07;;;3.50;99.90;;;;;;6243300;22;20173;-52
2021/11/25 05:02:37;;;;;;;19.77;12.38;;;3.70;99.90;;;;;;6254892;22;20478;-52
2021/11/25 05:05:05;;;;;;;18.57;12.77;;;4.00;99.90;;;;;;6244117;22;20658;-51
2021/11/25 05:07:31;;;;;;;18.85;12.80;;;4.00;99.90;;;;;;6254281;22;20592;-51
2021/11/25 05:09:57;;;;;;;18.63;12.52;;;3.20;99.90;;;;;;6254235;22;20207;-51
2021/11/25 05:12:23;;;;;;;19.00;12.40;;;3.80;99.90;;;;;;6254585;23;20588;-52
2021/11/25 05:14:48;;;;;;;21.23;12.77;;;3.90;99.90;;;;;;6254825;22;20199;-52
2021/11/25 05:17:14;;;;;;;19.43;12.90;;;4.20;99.90;;;;;;6252402;23;20395;-52
2021/11/25 05:19:40;;;;;;;18.03;12.30;;;3.40;99.90;;;;;;6253209;22;20149;-52
2021/11/25 05:22:06;;;;;;;19.03;13.67;;;4.00;99.90;;;;;;6254142;22;20177;-52
2021/11/25 05:24:31;;;;;;;19.20;12.70;;;4.20;99.90;;;;;;6243905;22;20161;-52
2021/11/25 05:26:57;;;;;;;17.03;13.10;;;4.10;99.90;;;;;;6252712;23;20222;-52
2021/11/25 05:29:23;;;;;;;20.77;13.03;;;3.70;99.90;;;;;;6243821;22;20601;-52
2021/11/25 05:31:49;;;;;;;18.50;12.33;;;3.70;99.90;;;;;;6254034;23;20496;-52
2021/11/25 05:34:18;;;;;;;19.70;13.52;;;3.60;99.90;;;;;;6254374;22;20163;-52
2021/11/25 05:36:45;;;;;;;17.75;11.98;;;4.00;99.90;;;;;;6254301;22;20181;-52
2021/11/25 05:39:12;;;;;;;19.13;12.40;;;3.70;99.90;;;;;;6253802;22;20156;-51
2021/11/25 05:41:39;;;;;;;20.42;12.80;;;3.80;99.90;;;;;;6254062;22;20513;-52
2021/11/25 05:44:06;;;;;;;18.80;11.95;;;3.90;99.90;;;;;;6254294;22;20146;-52
2021/11/25 05:46:32;;;;;;;16.60;11.90;;;3.40;99.90;;;;;;6254054;22;20165;-51
2021/11/25 05:48:58;;;;;;;20.55;13.35;;;4.00;99.90;;;;;;6254319;22;20207;-51
2021/11/25 05:51:24;;;;;;;17.77;11.93;;;4.00;99.90;;;;;;6254104;22;20550;-51
2021/11/25 05:53:50;;;;;;;20.30;12.47;;;4.00;99.90;;;;;;6242914;23;20388;-51
2021/11/25 05:56:15;;;;;;;18.27;12.38;;;3.60;99.90;;;;;;6254146;22;20149;-51
2021/11/25 05:58:41;;;;;;;20.17;12.73;;;3.90;99.90;;;;;;6253871;23;20237;-51
2021/11/25 06:01:07;;;;;;;19.57;12.93;;;3.90;99.90;;;;;;6253807;23;20185;-51
2021/11/25 06:03:33;;;;;;;20.13;13.33;;;3.10;99.90;;;;;;6253829;23;20219;-51
2021/11/25 06:05:59;;;;;;;21.02;13.30;;;3.90;99.90;;;;;;6254091;22;20154;-51
2021/11/25 06:08:25;;;;;;;24.47;14.70;;;3.70;99.90;;;;;;6243445;23;20163;-51
2021/11/25 06:10:51;;;;;;;17.90;13.30;;;3.70;99.90;;;;;;6253806;23;20218;-51
2021/11/25 06:13:16;;;;;;;22.30;13.80;;;3.70;99.90;;;;;;6253732;23;20384;-51
2021/11/25 06:15:42;;;;;;;19.00;13.27;;;4.20;99.90;;;;;;6254048;23;20388;-51
2021/11/25 06:18:08;;;;;;;19.53;13.40;;;3.90;99.90;;;;;;6253009;22;20150;-51
2021/11/25 06:20:34;;;;;;;24.57;14.70;;;3.60;99.90;;;;;;6253735;22;20170;-51
2021/11/25 06:22:59;;;;;;;23.13;14.35;;;3.80;99.90;;;;;;6253431;22;20380;-51
2021/11/25 06:25:26;;;;;;;19.00;13.47;;;3.40;99.90;;;;;;6253627;23;20534;-51
2021/11/25 06:27:52;;;;;;;20.42;14.43;;;3.50;99.90;;;;;;6242984;22;20232;-51
2021/11/25 06:30:19;;;;;;;20.90;13.50;;;3.60;99.90;;;;;;6243689;22;20260;-50
2021/11/25 06:32:47;;;;;;;20.42;13.93;;;3.90;99.90;;;;;;6243362;22;20616;-51
2021/11/25 06:35:15;;;;;;;28.20;14.40;;;3.70;99.90;;;;;;6253421;22;20145;-50
2021/11/25 06:37:46;;;;;;;22.70;14.18;;;3.70;99.90;;;;;;6243152;22;20149;-50
2021/11/25 06:40:14;;;;;;;22.17;14.48;;;3.60;99.90;;;;;;6242705;22;20303;-50
2021/11/25 06:42:40;;;;;;;21.88;13.60;;;3.30;99.90;;;;;;6243335;22;20205;-51
2021/11/25 06:45:06;;;;;;;23.43;15.30;;;3.30;99.90;;;;;;6253322;23;20223;-51
2021/11/25 06:47:32;;;;;;;20.88;12.13;;;3.60;99.90;;;;;;6253062;23;20275;-51
2021/11/25 06:49:58;;;;;;;17.60;12.83;;;3.70;99.90;;;;;;6253037;22;20492;-51
2021/11/25 06:52:24;;;;;;;19.17;12.00;;;3.50;99.90;;;;;;6243131;23;20459;-51
2021/11/25 06:54:49;;;;;;;16.73;11.77;;;3.60;99.90;;;;;;6252343;23;20161;-51
2021/11/25 06:57:15;;;;;;;20.07;13.10;;;3.20;99.90;;;;;;6253076;23;20431;-51
2021/11/25 06:59:40;;;;;;;18.83;12.47;;;3.60;99.90;;;;;;6243281;23;20153;-51
2021/11/25 07:02:07;;;;;;;20.33;13.50;;;3.70;99.90;;;;;;6253034;23;20186;-51
2021/11/25 07:04:33;;;;;;;20.52;12.35;;;4.00;99.90;;;;;;6252864;22;20159;-50
2021/11/25 07:06:59;;;;;;;20.53;14.07;;;3.90;99.90;;;;;;6252675;22;20160;-50
2021/11/25 07:09:24;;;;;;;18.58;12.73;;;3.90;99.90;;;;;;6241751;22;20165;-52
2021/11/25 07:11:50;;;;;;;22.33;13.10;;;4.40;99.90;;;;;;6249512;23;20540;-51
2021/11/25 07:14:16;;;;;;;18.17;12.57;;;4.40;99.90;;;;;;6253141;23;20579;-52
2021/11/25 07:16:41;;;;;;;17.30;12.40;;;4.20;99.90;;;;;;6240031;23;20167;-52
2021/11/25 07:19:07;;;;;;;21.10;13.97;;;3.50;99.90;;;;;;6252313;23;20166;-51
2021/11/25 07:21:33;;;;;;;22.47;14.30;;;4.10;99.90;;;;;;6251693;23;20212;-51
2021/11/25 07:23:58;;;;;;;21.87;14.43;;;4.20;99.90;;;;;;6252923;23;20149;-51
2021/11/25 07:26:24;;;;;;;21.80;13.70;;;3.70;99.90;;;;;;6252875;23;20149;-50
2021/11/25 07:28:50;;;;;;;20.10;12.73;;;3.70;99.90;;;;;;6242510;23;20156;-55
2021/11/25 07:31:16;;;;;;;22.47;13.73;;;4.00;99.90;;;;;;6253466;22;20172;-51
2021/11/25 07:33:42;;;;;;;19.30;13.30;;;4.00;99.90;;;;;;6254660;22;20537;-52
2021/11/25 07:36:07;;;;;;;19.38;13.38;;;3.70;99.90;;;;;;6254030;22;20851;-50
2021/11/25 07:38:34;;;;;;;20.47;12.93;;;3.70;99.90;;;;;;6243398;23;20203;-52
2021/11/25 07:41:00;;;;;;;22.17;13.32;;;3.20;99.90;;;;;;6241789;23;20189;-50
2021/11/25 07:43:27;;;;;;;19.77;12.05;;;3.80;99.90;;;;;;6254491;22;20146;-52
2021/11/25 07:45:52;;;;;;;16.63;11.75;;;4.00;99.90;;;;;;6243392;22;20584;-50
2021/11/25 07:48:18;;;;;;;17.70;11.90;;;3.80;99.90;;;;;;6254236;23;20157;-50
2021/11/25 07:50:44;;;;;;;21.37;13.47;;;4.00;99.90;;;;;;6254333;22;20215;-50
2021/11/25 07:53:10;;;;;;;18.73;12.57;;;3.80;99.90;;;;;;6254825;23;20145;-51
2021/11/25 07:55:36;;;;;;;17.97;11.50;;;3.90;99.90;;;;;;6254127;23;20153;-51
2021/11/25 07:58:02;;;;;;;18.07;12.70;;;4.00;99.90;;;;;;6253837;22;20168;-51
2021/11/25 08:00:28;;;;;;;21.80;12.98;;;3.80;99.90;;;;;;6253957;22;20435;-50
2021/11/25 08:02:56;;;;;;;18.33;12.80;;;3.30;99.90;;;;;;6254084;22;20146;-53
2021/11/25 08:05:26;;;;;;;22.80;14.00;;;3.90;99.90;;;;;;6254182;22;20695;-52
2021/11/25 08:07:54;;;;;;;19.67;12.23;;;3.90;99.90;;;;;;6253233;22;20606;-51
2021/11/25 08:10:21;;;;;;;17.02;12.02;;;3.90;99.90;;;;;;6240347;22;20189;-53
2021/11/25 08:12:47;;;;;;;24.80;13.60;;;4.10;99.90;;;;;;6241989;22;20157;-53
2021/11/25 08:15:13;;;;;;;24.40;14.30;;;3.20;99.90;;;;;;6251736;23;20163;-51
2021/11/25 08:17:40;;;;;;;21.77;13.75;;;3.80;99.90;;;;;;6251974;23;20158;-51
2021/11/25 08:20:06;;;;;;;20.27;14.25;;;3.80;99.90;;;;;;6252309;22;20616;-51
2021/11/25 08:22:32;;;;;;;23.05;13.50;;;4.00;99.90;;;;;;6252403;22;20606;-52
2021/11/25 08:24:58;;;;;;;22.47;14.50;;;3.60;99.90;;;;;;6252458;23;20361;-52
2021/11/25 08:27:23;;;;;;;18.70;11.83;;;3.70;99.90;;;;;;6251769;22;20475;-51
2021/11/25 08:29:49;;;;;;;21.87;14.00;;;4.00;99.90;;;;;;6252785;22;20152;-50
2021/11/25 08:32:15;;;;;;;20.20;13.23;;;4.10;99.90;;;;;;6253843;22;20172;-50
2021/11/25 08:34:41;;;;;;;21.50;13.63;;;4.20;99.90;;;;;;6253891;22;20592;-51
2021/11/25 08:37:06;;;;;;;22.90;13.70;;;4.40;99.90;;;;;;6253835;22;20548;-50
2021/11/25 08:39:34;;;;;;;35.03;15.57;;;4.10;99.90;;;;;;6243939;22;20438;-52
2021/11/25 08:42:00;;;;;;;21.17;13.90;;;3.60;99.90;;;;;;6243489;22;20439;-53
2021/11/25 08:44:25;;;;;;;24.00;15.68;;;3.50;99.90;;;;;;6254054;23;20160;-52
2021/11/25 08:46:51;;;;;;;22.30;13.50;;;4.10;99.90;;;;;;6253519;23;20164;-54
2021/11/25 08:49:17;;;;;;;25.30;14.80;;;4.00;99.90;;;;;;6253888;23;20153;-55
2021/11/25 08:51:43;;;;;;;23.17;14.88;;;4.00;99.90;;;;;;6253313;22;20593;-53
2021/11/25 08:54:09;;;;;;;23.30;15.40;;;4.10;99.90;;;;;;6254063;23;20156;-52
2021/11/25 08:56:34;;;;;;;24.23;15.30;;;4.20;99.90;;;;;;6253266;23;20157;-53
2021/11/25 08:59:00;;;;;;;20.80;14.67;;;3.70;99.90;;;;;;6252141;23;20162;-54
2021/11/25 09:01:26;;;;;;;20.70;14.43;;;3.80;99.90;;;;;;6253529;23;20178;-53
2021/11/25 09:03:52;;;;;;;24.60;14.97;;;3.60;99.90;;;;;;6253207;22;20157;-53
2021/11/25 09:06:18;;;;;;;22.90;14.15;;;4.20;99.90;;;;;;6242606;22;20167;-53
2021/11/25 09:08:44;;;;;;;20.45;12.85;;;3.50;99.90;;;;;;6250867;22;20154;-53
2021/11/25 09:11:10;;;;;;;22.00;14.27;;;3.40;99.90;;;;;;6252080;23;20255;-51
2021/11/25 09:13:36;;;;;;;20.92;12.75;;;4.10;99.90;;;;;;6252192;22;20191;-51
2021/11/25 09:16:02;;;;;;;24.70;14.50;;;4.00;99.90;;;;;;6239790;23;20203;-51
2021/11/25 09:18:27;;;;;;;23.07;13.60;;;4.10;99.90;;;;;;6251683;23;20392;-52
2021/11/25 09:20:53;;;;;;;24.83;16.37;;;4.10;99.90;;;;;;6241544;23;20220;-51
2021/11/25 09:23:20;;;;;;;22.27;14.93;;;4.20;99.90;;;;;;6252339;23;20167;-51
2021/11/25 09:25:46;;;;;;;20.40;12.98;;;4.30;99.90;;;;;;6251676;22;20146;-51
2021/11/25 09:28:18;;;;;;;24.80;14.43;;;3.50;99.90;;;;;;6251315;22;20153;-53
2021/11/25 09:30:45;;;;;;;22.40;13.48;;;4.40;99.90;;;;;;6240992;22;20260;-54
2021/11/25 09:33:11;;;;;;;26.77;16.33;;;4.20;99.90;;;;;;6251151;22;20146;-53
2021/11/25 09:35:40;;;;;;;22.05;13.00;;;4.40;99.90;;;;;;6252270;22;20164;-52
2021/11/25 09:38:07;;;;;;;23.80;14.27;;;4.40;99.90;;;;;;6240989;22;20172;-50
2021/11/25 09:40:34;;;;;;;24.10;14.38;;;4.70;99.90;;;;;;6251775;22;20662;-54
2021/11/25 09:43:03;;;;;;;23.42;14.15;;;4.50;99.90;;;;;;6241515;22;20154;-54
2021/11/25 09:45:31;;;;;;;27.95;14.98;;;4.70;99.90;;;;;;6253775;22;20166;-52
2021/11/25 09:48:03;;;;;;;20.83;13.30;;;4.70;99.90;;;;;;6253252;23;20596;-51
2021/11/25 09:50:30;;;;;;;19.58;13.90;;;4.30;99.90;;;;;;6243782;22;20178;-51
2021/11/25 09:53:00;;;;;;;19.80;12.68;;;4.90;99.90;;;;;;6253533;22;20194;-51
2021/11/25 09:55:26;;;;;;;21.13;14.25;;;4.90;99.90;;;;;;6253906;22;20888;-54
2021/11/25 09:57:52;;;;;;;30.50;14.67;;;5.00;99.90;;;;;;6243350;23;20188;-53
2021/11/25 10:00:20;;;;;;;35.15;20.02;;;5.00;99.90;;;;;;6254003;22;20472;-53
2021/11/25 10:02:46;;;;;;;19.75;13.73;;;5.00;99.90;;;;;;6254046;22;20187;-53
2021/11/25 10:05:12;;;;;;;21.75;13.18;;;4.90;99.90;;;;;;6252562;22;20558;-53
2021/11/25 10:07:40;;;;;;;21.10;13.13;;;5.00;99.90;;;;;;6242832;22;20240;-52
2021/11/25 10:10:38;;;;;;;23.52;13.85;;;4.90;99.90;;;;;;6252166;22;20165;-51
2021/11/25 10:13:15;;;;;;;22.45;13.63;;;4.90;99.90;;;;;;6186327;22;20159;-52
2021/11/25 10:15:42;;;;;;;24.45;13.25;;;4.80;99.90;;;;;;6243034;22;20471;-52
2021/11/25 10:18:13;;;;;;;20.00;12.93;;;4.40;99.90;;;;;;6253252;22;20162;-53
2021/11/25 10:20:45;;;;;;;18.27;12.40;;;4.50;99.90;;;;;;6253294;22;20180;-54
2021/11/25 10:23:15;;;;;;;32.30;19.33;;;4.80;99.90;;;;;;6241868;23;20716;-54
2021/11/25 10:25:58;;;;;;;21.45;13.88;;;4.80;99.90;;;;;;6241459;23;20226;-52
2021/11/25 10:28:29;;;;;;;19.58;14.05;;;5.00;99.90;;;;;;6253369;22;20488;-54
2021/11/25 10:31:00;;;;;;;20.63;13.60;;;4.90;99.90;;;;;;6255761;22;20178;-54
2021/11/25 10:33:31;;;;;;;18.88;13.65;;;5.00;99.90;;;;;;6255565;22;20569;-53
2021/11/25 10:39:26;;;;;;;20.45;13.35;;;5.30;99.90;;;;;;6255150;22;20147;-50
2021/11/25 10:41:26;;;;;;;24.75;13.95;;;5.50;99.90;;;;;;6229682;23;20194;-51
2021/11/25 10:44:10;;;;;;;19.15;12.93;;;5.10;99.90;;;;;;6243913;22;20167;-53
2021/11/25 10:46:43;;;;;;;21.92;14.50;;;5.30;99.90;;;;;;6251938;23;20165;-53
2021/11/25 10:49:12;;;;;;;20.15;12.90;;;5.30;99.90;;;;;;6251772;23;20144;-53
2021/11/25 10:51:41;;;;;;;24.20;13.05;;;4.60;99.90;;;;;;6250361;22;20589;-53
2021/11/25 10:54:11;;;;;;;22.10;13.10;;;4.80;99.90;;;;;;6241869;22;20159;-53
2021/11/25 10:56:50;;;;;;;20.55;13.98;;;4.80;99.90;;;;;;6252656;22;20145;-51
2021/11/25 10:59:19;;;;;;;18.08;12.05;;;5.00;99.90;;;;;;6252480;22;20137;-53
2021/11/25 11:01:48;;;;;;;21.52;14.25;;;5.40;99.90;;;;;;6252264;22;20172;-53
2021/11/25 11:04:15;;;;;;;21.60;13.55;;;5.30;99.90;;;;;;6252669;22;20150;-52
2021/11/25 11:06:42;;;;;;;21.15;13.35;;;5.10;99.90;;;;;;6242473;22;20182;-52
2021/11/25 11:09:39;;;;;;;19.80;13.70;;;5.20;99.90;;;;;;6252222;22;20691;-52
2021/11/25 11:12:23;;;;;;;25.90;13.63;;;5.30;99.90;;;;;;6243322;22;20204;-53
2021/11/25 11:15:11;;;;;;;27.45;14.82;;;4.60;99.90;;;;;;6253286;22;20547;-53
2021/11/25 11:20:24;;;;;;;26.23;13.65;;;4.80;99.90;;;;;;6253604;23;20652;-53
2021/11/25 11:22:52;;;;;;;22.20;14.10;;;5.10;99.90;;;;;;6253142;22;20247;-54
2021/11/25 11:25:21;;;;;;;17.75;12.77;;;5.00;99.90;;;;;;6252796;22;20374;-53
2021/11/25 11:27:50;;;;;;;17.95;12.45;;;4.70;99.90;;;;;;6252603;22;20151;-53
2021/11/25 11:30:16;;;;;;;21.00;12.93;;;5.20;99.90;;;;;;6252652;22;20489;-54
2021/11/25 11:32:42;;;;;;;21.40;14.65;;;5.40;99.90;;;;;;6252583;22;20510;-52
2021/11/25 11:35:08;;;;;;;25.70;14.38;;;5.10;99.90;;;;;;6242371;22;20312;-52
2021/11/25 11:37:34;;;;;;;25.60;14.15;;;5.20;99.90;;;;;;6243276;22;20155;-52
2021/11/25 11:40:03;;;;;;;21.90;14.30;;;4.70;99.90;;;;;;6252106;22;20160;-52
2021/11/25 11:42:29;;;;;;;19.60;13.25;;;5.40;99.90;;;;;;6252923;22;20419;-53
2021/11/25 11:44:55;;;;;;;18.13;13.50;;;5.80;99.90;;;;;;6242163;22;20152;-52
2021/11/25 11:47:24;;;;;;;24.98;14.20;;;5.80;99.90;;;;;;6251533;23;20154;-52
2021/11/25 11:49:50;;;;;;;23.90;14.40;;;5.30;99.90;;;;;;6252746;22;20144;-52
2021/11/25 11:52:24;;;;;;;20.52;13.18;;;5.90;99.90;;;;;;6252635;22;20620;-53
2021/11/25 11:55:00;;;;;;;19.92;13.48;;;6.00;99.90;;;;;;6251599;22;20146;-51
2021/11/25 11:57:48;;;;;;;20.25;13.45;;;6.00;99.90;;;;;;6251927;23;20163;-53
2021/11/25 12:00:19;;;;;;;22.70;13.63;;;6.10;99.90;;;;;;6253025;22;20632;-52
2021/11/25 12:02:50;;;;;;;21.83;14.95;;;5.80;99.60;;;;;;6242336;23;20258;-51
2021/11/25 12:05:51;;;;;;;23.48;14.27;;;6.00;99.90;;;;;;6251790;22;20155;-52
2021/11/25 12:08:19;;;;;;;25.70;14.00;;;5.60;99.90;;;;;;6128763;23;20178;-52
2021/11/25 12:10:54;;;;;;;23.88;15.02;;;6.10;99.90;;;;;;6228981;22;20179;-53
2021/11/25 12:13:19;;;;;;;25.33;14.82;;;6.00;99.90;;;;;;6252745;23;20222;-53
2021/11/25 12:15:45;;;;;;;21.03;14.97;;;6.30;99.70;;;;;;6252371;23;20437;-53
2021/11/25 12:18:37;;;;;;;24.50;12.87;;;5.80;99.70;;;;;;6252411;23;20154;-53
2021/11/25 12:21:03;;;;;;;22.20;14.55;;;6.20;99.30;;;;;;6236875;23;20491;-53
2021/11/25 12:23:34;;;;;;;20.50;13.88;;;5.90;99.60;;;;;;6249682;23;20163;-53
2021/11/25 12:26:01;;;;;;;23.63;14.98;;;5.70;99.50;;;;;;6241497;22;20606;-53
2021/11/25 12:28:29;;;;;;;21.90;14.30;;;5.90;99.90;;;;;;6252464;22;20226;-53
2021/11/25 12:33:43;;;;;;;21.58;14.50;;;6.10;99.90;;;;;;6249196;22;20146;-53
2021/11/25 12:36:30;;;;;;;24.20;15.27;;;6.20;99.90;;;;;;6252156;22;20151;-53
2021/11/25 12:38:56;;;;;;;18.75;13.43;;;5.80;99.90;;;;;;6251090;23;20158;-53
2021/11/25 12:41:22;;;;;;;27.00;15.40;;;6.00;99.90;;;;;;6251574;23;20173;-51
2021/11/25 12:43:48;;;;;;;21.67;14.90;;;6.00;99.70;;;;;;6251245;22;20155;-50
2021/11/25 12:46:16;;;;;;;34.00;15.50;;;6.00;99.90;;;;;;6252218;22;20378;-50
2021/11/25 12:48:45;;;;;;;22.88;14.50;;;5.20;99.40;;;;;;6241858;22;20398;-52
2021/11/25 12:51:13;;;;;;;22.52;14.27;;;5.20;99.50;;;;;;6251915;22;20183;-52